Time;durP1;ratioP1;P1;durP2;ratioP2;P2;SDS_P1;SDS_P2;PMS_P1;PMS_P2;Temp;Humidity;BMP_temperature;BMP_pressure;BME280_temperature;BME280_humidity;BME280_pressure;Samples;Min_cycle;Max_cycle;Signal;HPM_P1;HPM_P2
2023/09/14 00:00:52;;;;;;;7.30;2.33;;;12.90;99.90;;;;;;5035236;28;20037;-67
2023/09/14 00:03:19;;;;;;;6.28;1.92;;;12.80;99.90;;;;;;5016537;28;20045;-67
2023/09/14 00:05:46;;;;;;;5.95;2.10;;;12.80;99.90;;;;;;5017661;28;20034;-67
2023/09/14 00:08:12;;;;;;;6.88;2.30;;;12.80;99.90;;;;;;5017734;28;20076;-67
2023/09/14 00:10:39;;;;;;;5.68;2.33;;;12.80;99.90;;;;;;5017315;28;20809;-67
2023/09/14 00:13:05;;;;;;;7.32;3.10;;;12.80;99.90;;;;;;5017744;28;20601;-67
2023/09/14 00:15:32;;;;;;;5.80;2.35;;;12.70;99.90;;;;;;5050355;28;20037;-67
2023/09/14 00:17:58;;;;;;;5.43;2.08;;;12.70;99.90;;;;;;5020709;28;20055;-67
2023/09/14 00:20:26;;;;;;;7.80;2.40;;;12.70;99.90;;;;;;5036654;28;20055;-67
2023/09/14 00:22:53;;;;;;;4.50;1.88;;;12.60;99.90;;;;;;5037025;28;20132;-67
2023/09/14 00:25:20;;;;;;;8.43;2.42;;;12.60;99.90;;;;;;5034654;28;20091;-67
2023/09/14 00:27:46;;;;;;;5.72;2.55;;;12.60;99.90;;;;;;5017147;28;20041;-67
2023/09/14 00:30:13;;;;;;;6.75;3.00;;;12.60;99.90;;;;;;5016087;28;20107;-67
2023/09/14 00:32:40;;;;;;;5.65;2.22;;;12.50;99.90;;;;;;5016017;28;20048;-67
2023/09/14 00:35:15;;;;;;;6.18;2.28;;;12.50;99.90;;;;;;5017240;28;20046;-67
2023/09/14 00:37:41;;;;;;;6.80;2.25;;;12.50;99.90;;;;;;5025983;28;20036;-67
2023/09/14 00:40:09;;;;;;;5.47;2.45;;;12.40;99.90;;;;;;5035819;28;20099;-67
2023/09/14 00:42:46;;;;;;;5.60;2.70;;;12.40;99.90;;;;;;5025691;28;20037;-67
2023/09/14 00:45:14;;;;;;;7.68;2.70;;;12.40;99.90;;;;;;5016678;28;20122;-67
2023/09/14 00:47:43;;;;;;;6.53;2.63;;;12.30;99.90;;;;;;5033523;28;20536;-67
2023/09/14 00:50:10;;;;;;;6.30;2.40;;;12.20;99.90;;;;;;5000285;28;20510;-67
2023/09/14 00:52:37;;;;;;;7.38;2.67;;;12.20;99.90;;;;;;5015854;28;20487;-67
2023/09/14 00:55:05;;;;;;;6.75;2.70;;;12.20;99.90;;;;;;5035815;28;20057;-67
2023/09/14 00:57:32;;;;;;;6.85;2.60;;;12.20;99.90;;;;;;5050421;28;20094;-67
2023/09/14 00:59:58;;;;;;;7.03;3.03;;;12.20;99.90;;;;;;5032138;28;20410;-67
2023/09/14 01:02:26;;;;;;;4.88;2.08;;;12.10;99.90;;;;;;5032567;28;20042;-67
2023/09/14 01:04:52;;;;;;;6.30;2.33;;;12.10;99.90;;;;;;5033119;28;20064;-67
2023/09/14 01:07:18;;;;;;;7.07;3.20;;;12.10;99.90;;;;;;5032208;28;20046;-67
2023/09/14 01:09:44;;;;;;;5.25;2.45;;;12.10;99.90;;;;;;5032842;28;20052;-67
2023/09/14 01:12:10;;;;;;;7.45;2.85;;;12.10;99.90;;;;;;5032738;28;20041;-67
2023/09/14 01:14:35;;;;;;;7.18;2.90;;;12.00;99.90;;;;;;5031382;28;20125;-67
2023/09/14 01:17:22;;;;;;;6.90;2.70;;;12.00;99.90;;;;;;5028565;28;20124;-67
2023/09/14 01:20:04;;;;;;;5.20;2.42;;;12.00;99.90;;;;;;5030908;28;20437;-67
2023/09/14 01:22:42;;;;;;;5.28;2.72;;;11.90;99.90;;;;;;5031525;28;20042;-67
2023/09/14 01:25:14;;;;;;;5.57;2.35;;;11.90;99.90;;;;;;5032747;28;20041;-68
2023/09/14 01:27:39;;;;;;;5.43;2.17;;;11.80;99.90;;;;;;5032459;28;20042;-67
2023/09/14 01:30:06;;;;;;;5.15;2.40;;;11.80;99.90;;;;;;5028530;28;20060;-67
2023/09/14 01:32:32;;;;;;;7.05;2.35;;;11.80;99.90;;;;;;5012786;28;20049;-67
2023/09/14 01:34:58;;;;;;;6.88;3.22;;;11.80;99.90;;;;;;5012352;28;20042;-67
2023/09/14 01:37:24;;;;;;;10.43;4.15;;;11.70;99.90;;;;;;5012543;28;20046;-67
2023/09/14 01:39:53;;;;;;;7.72;2.97;;;11.70;99.90;;;;;;5012326;28;20042;-67
2023/09/14 01:42:20;;;;;;;6.78;2.83;;;11.70;99.90;;;;;;4995050;28;20121;-67
2023/09/14 01:44:46;;;;;;;11.50;3.13;;;11.70;99.90;;;;;;5023447;28;20092;-67
2023/09/14 01:47:12;;;;;;;5.28;2.65;;;11.60;99.90;;;;;;5031743;28;20060;-67
2023/09/14 01:49:38;;;;;;;7.15;2.85;;;11.60;99.90;;;;;;5031229;28;20042;-67
2023/09/14 01:52:04;;;;;;;6.95;2.72;;;11.50;99.90;;;;;;5032430;28;20083;-67
2023/09/14 01:54:29;;;;;;;8.25;2.58;;;11.50;99.90;;;;;;5034996;28;20056;-67
2023/09/14 01:56:55;;;;;;;5.85;2.50;;;11.40;99.90;;;;;;5034643;28;20045;-67
2023/09/14 01:59:21;;;;;;;6.18;2.60;;;11.40;99.90;;;;;;5034477;28;20084;-67
2023/09/14 02:01:47;;;;;;;5.93;2.50;;;11.40;99.90;;;;;;5035155;28;20358;-67
2023/09/14 02:04:12;;;;;;;6.38;3.00;;;11.30;99.90;;;;;;5033999;28;20036;-67
2023/09/14 02:06:38;;;;;;;6.32;2.65;;;11.30;99.90;;;;;;5034872;28;20421;-67
2023/09/14 02:09:04;;;;;;;7.47;3.10;;;11.30;99.90;;;;;;5019163;28;20041;-67
2023/09/14 02:11:30;;;;;;;5.95;2.60;;;11.30;99.90;;;;;;5033855;28;20049;-67
2023/09/14 02:13:55;;;;;;;4.63;2.20;;;11.20;99.90;;;;;;5035020;28;20090;-67
2023/09/14 02:16:21;;;;;;;6.38;2.75;;;11.20;99.90;;;;;;5034846;28;20049;-67
2023/09/14 02:18:47;;;;;;;7.53;2.92;;;11.20;99.90;;;;;;5017154;28;20051;-67
2023/09/14 02:21:12;;;;;;;6.95;2.72;;;11.10;99.90;;;;;;5052528;28;20072;-67
2023/09/14 02:23:38;;;;;;;5.60;2.35;;;11.20;99.90;;;;;;5035023;28;20044;-67
2023/09/14 02:26:04;;;;;;;5.70;2.17;;;11.10;99.90;;;;;;5034575;28;20465;-67
2023/09/14 02:28:29;;;;;;;6.70;2.72;;;11.10;99.90;;;;;;5017678;28;20497;-67
2023/09/14 02:30:55;;;;;;;6.97;2.90;;;11.20;99.90;;;;;;5035126;28;20170;-67
2023/09/14 02:33:21;;;;;;;5.50;2.10;;;11.20;99.90;;;;;;5033779;28;20049;-67
2023/09/14 02:35:50;;;;;;;7.68;2.58;;;11.10;99.90;;;;;;5034570;28;20181;-67
2023/09/14 02:38:17;;;;;;;5.72;2.67;;;11.10;99.90;;;;;;5051472;28;20041;-67
2023/09/14 02:40:42;;;;;;;6.53;2.55;;;11.10;99.90;;;;;;5034785;28;20478;-67
2023/09/14 02:43:08;;;;;;;8.00;2.88;;;11.00;99.90;;;;;;5034602;28;20048;-68
2023/09/14 02:45:33;;;;;;;4.68;2.30;;;11.00;99.90;;;;;;5034027;28;20044;-67
2023/09/14 02:47:59;;;;;;;6.55;2.85;;;11.00;99.90;;;;;;5018243;28;20045;-67
2023/09/14 02:50:25;;;;;;;5.35;2.30;;;11.00;99.90;;;;;;5033745;28;20080;-67
2023/09/14 02:52:52;;;;;;;6.30;2.38;;;11.00;99.90;;;;;;5033352;28;20053;-67
2023/09/14 02:55:17;;;;;;;4.90;2.38;;;11.00;99.90;;;;;;5030542;28;20061;-67
2023/09/14 02:57:43;;;;;;;5.93;2.50;;;11.00;99.90;;;;;;5031032;28;20204;-67
2023/09/14 03:00:13;;;;;;;5.50;1.90;;;11.00;99.90;;;;;;5030161;28;20434;-67
2023/09/14 03:02:40;;;;;;;8.43;2.22;;;11.00;99.90;;;;;;5030905;28;20064;-67
2023/09/14 03:05:06;;;;;;;5.68;2.28;;;10.90;99.90;;;;;;5030966;28;20041;-67
2023/09/14 03:07:31;;;;;;;5.47;2.25;;;10.80;99.90;;;;;;5029613;28;20052;-67
2023/09/14 03:09:57;;;;;;;5.07;1.85;;;10.80;99.90;;;;;;5031220;28;20044;-67
2023/09/14 03:12:23;;;;;;;4.22;1.88;;;10.80;99.90;;;;;;5030612;28;20041;-67
2023/09/14 03:14:49;;;;;;;5.00;1.95;;;10.70;99.90;;;;;;5013743;28;20042;-67
2023/09/14 03:17:14;;;;;;;4.40;1.92;;;10.70;99.90;;;;;;5030213;28;20041;-67
2023/09/14 03:19:42;;;;;;;5.32;2.40;;;10.70;99.90;;;;;;5031867;28;20045;-67
2023/09/14 03:22:08;;;;;;;6.00;2.40;;;10.70;99.90;;;;;;5031372;28;20049;-67
2023/09/14 03:24:33;;;;;;;4.97;2.55;;;10.60;99.90;;;;;;5013901;28;20049;-67
2023/09/14 03:26:59;;;;;;;4.47;1.98;;;10.50;99.90;;;;;;5030847;28;20048;-67
2023/09/14 03:29:25;;;;;;;5.22;2.35;;;10.50;99.90;;;;;;5030147;28;20089;-67
2023/09/14 03:31:51;;;;;;;6.93;2.35;;;10.50;99.90;;;;;;5030674;28;20453;-67
2023/09/14 03:34:17;;;;;;;5.47;2.33;;;10.50;99.90;;;;;;5030299;28;20056;-67
2023/09/14 03:36:43;;;;;;;13.88;2.58;;;10.50;99.90;;;;;;5013878;28;20045;-67
2023/09/14 03:39:11;;;;;;;5.63;2.45;;;10.40;99.90;;;;;;5029724;28;20050;-67
2023/09/14 03:41:36;;;;;;;4.72;2.05;;;10.40;99.90;;;;;;5029557;28;20060;-67
2023/09/14 03:44:02;;;;;;;5.05;2.15;;;10.30;99.90;;;;;;5030763;28;20482;-67
2023/09/14 03:46:28;;;;;;;4.20;2.05;;;10.30;99.90;;;;;;5030282;28;20110;-67
2023/09/14 03:48:53;;;;;;;4.35;1.92;;;10.30;99.90;;;;;;5030076;28;20047;-67
2023/09/14 03:51:19;;;;;;;6.03;2.50;;;10.20;99.90;;;;;;5014222;28;20107;-67
2023/09/14 03:53:45;;;;;;;6.15;2.30;;;10.30;99.90;;;;;;5030576;28;20041;-67
2023/09/14 03:56:10;;;;;;;6.00;2.47;;;10.30;99.90;;;;;;5032969;28;20041;-67
2023/09/14 03:58:36;;;;;;;8.80;2.35;;;10.20;99.90;;;;;;5049830;28;20037;-68
2023/09/14 04:01:03;;;;;;;7.45;2.25;;;10.30;99.90;;;;;;5033946;28;20037;-68
2023/09/14 04:03:29;;;;;;;6.95;2.70;;;10.20;99.90;;;;;;5032638;28;20080;-67
2023/09/14 04:05:55;;;;;;;5.45;2.38;;;10.30;99.90;;;;;;5036574;28;20072;-67
2023/09/14 04:08:23;;;;;;;5.78;2.78;;;10.30;99.90;;;;;;5055144;28;20457;-67
2023/09/14 04:10:51;;;;;;;7.38;2.55;;;10.30;99.90;;;;;;5036381;28;20076;-67
2023/09/14 04:13:34;;;;;;;5.38;2.30;;;10.20;99.90;;;;;;5036920;28;20482;-67
2023/09/14 04:16:03;;;;;;;6.45;2.28;;;10.20;99.90;;;;;;5036820;28;20124;-67
2023/09/14 04:18:33;;;;;;;5.78;2.35;;;10.20;99.90;;;;;;5036037;28;20112;-67
2023/09/14 04:20:59;;;;;;;5.45;2.05;;;10.20;99.90;;;;;;5036454;28;20155;-68
2023/09/14 04:23:24;;;;;;;6.57;1.90;;;10.10;99.90;;;;;;5037562;28;20067;-68
2023/09/14 04:59:36;;;;;;;5.07;2.13;;;9.90;99.90;;;;;;5049929;28;20456;-67
2023/09/14 05:02:02;;;;;;;5.60;2.42;;;9.90;99.90;;;;;;5016058;28;20056;-67
2023/09/14 05:04:28;;;;;;;4.03;1.55;;;9.90;99.90;;;;;;5016365;28;20037;-68
2023/09/14 05:06:53;;;;;;;5.50;2.13;;;10.00;99.90;;;;;;5033598;28;20041;-68
2023/09/14 05:09:19;;;;;;;4.75;1.98;;;10.00;99.90;;;;;;5016617;28;20171;-68
2023/09/14 05:11:45;;;;;;;4.45;1.70;;;10.00;99.90;;;;;;5016151;28;20045;-67
2023/09/14 05:14:10;;;;;;;4.80;2.25;;;10.00;99.90;;;;;;5015853;28;20052;-68
2023/09/14 05:16:36;;;;;;;7.35;2.83;;;10.00;99.90;;;;;;5015378;28;20045;-68
2023/09/14 05:19:02;;;;;;;6.28;2.72;;;10.10;99.90;;;;;;5016319;28;20046;-67
2023/09/14 05:21:27;;;;;;;7.93;2.53;;;10.20;99.90;;;;;;5015512;28;20104;-67
2023/09/14 05:23:53;;;;;;;5.57;2.30;;;10.20;99.90;;;;;;5016376;28;20450;-67
2023/09/14 05:26:19;;;;;;;5.22;2.00;;;10.20;99.90;;;;;;5015840;28;20045;-67
2023/09/14 05:28:44;;;;;;;4.43;2.33;;;10.30;99.90;;;;;;5031569;28;20026;-68
2023/09/14 05:31:10;;;;;;;6.20;2.53;;;10.30;99.90;;;;;;5016015;28;20049;-67
2023/09/14 05:33:36;;;;;;;6.70;2.67;;;10.30;99.90;;;;;;5015468;28;20048;-67
2023/09/14 05:36:02;;;;;;;5.53;2.85;;;10.40;99.90;;;;;;5033378;28;20120;-68
2023/09/14 05:38:27;;;;;;;5.93;2.63;;;10.40;99.90;;;;;;5032564;28;20495;-67
2023/09/14 05:40:53;;;;;;;6.85;2.75;;;10.40;99.90;;;;;;5015851;28;20537;-67
2023/09/14 05:43:19;;;;;;;7.35;3.15;;;10.40;99.90;;;;;;5015645;28;20038;-67
2023/09/14 05:45:45;;;;;;;6.55;2.83;;;10.50;99.90;;;;;;5015929;28;20040;-67
2023/09/14 05:48:10;;;;;;;6.97;2.95;;;10.50;99.90;;;;;;5032680;28;20120;-67
2023/09/14 05:50:36;;;;;;;6.10;2.80;;;10.60;99.90;;;;;;5033133;28;20164;-67
2023/09/14 05:53:02;;;;;;;5.15;2.00;;;10.60;99.90;;;;;;5015821;28;20045;-67
2023/09/14 05:55:28;;;;;;;7.95;2.70;;;10.60;99.90;;;;;;5014583;28;20045;-68
2023/09/14 05:57:54;;;;;;;5.90;2.47;;;10.70;99.90;;;;;;5015821;28;20441;-67
2023/09/14 06:00:20;;;;;;;5.28;2.58;;;10.80;99.90;;;;;;5038117;28;20057;-67
2023/09/14 06:02:46;;;;;;;6.78;2.35;;;10.80;99.90;;;;;;5017692;28;20404;-68
2023/09/14 06:05:12;;;;;;;5.22;2.38;;;10.90;99.90;;;;;;5034885;28;20044;-67
2023/09/14 06:07:37;;;;;;;11.75;3.03;;;11.00;99.90;;;;;;5035341;28;20124;-67
2023/09/14 06:10:03;;;;;;;7.28;2.53;;;11.00;99.90;;;;;;5034438;28;20051;-67
2023/09/14 06:12:29;;;;;;;6.25;2.67;;;11.00;99.90;;;;;;5034641;28;20045;-67
2023/09/14 06:14:57;;;;;;;5.68;2.33;;;11.10;99.90;;;;;;5047576;28;20497;-67
2023/09/14 06:17:22;;;;;;;8.35;2.30;;;11.20;99.90;;;;;;5034105;28;20045;-67
2023/09/14 06:19:48;;;;;;;7.68;2.33;;;11.20;99.90;;;;;;5034606;28;20091;-67
2023/09/14 06:22:14;;;;;;;7.28;2.63;;;11.30;99.90;;;;;;5034929;28;20033;-67
2023/09/14 06:24:39;;;;;;;6.97;2.60;;;11.40;99.90;;;;;;5051792;28;20033;-68
2023/09/14 06:27:05;;;;;;;5.55;2.67;;;11.40;99.90;;;;;;5052819;28;20043;-67
2023/09/14 06:29:30;;;;;;;7.63;2.45;;;11.50;99.90;;;;;;5033398;28;20037;-67
2023/09/14 06:31:56;;;;;;;6.43;2.53;;;11.50;99.90;;;;;;5034432;28;20484;-68
2023/09/14 06:34:22;;;;;;;6.97;2.50;;;11.60;99.90;;;;;;5034142;28;20106;-67
2023/09/14 06:36:47;;;;;;;7.93;2.60;;;11.60;99.90;;;;;;5017895;28;20072;-67
2023/09/14 06:39:14;;;;;;;6.65;2.50;;;11.70;99.90;;;;;;5017222;28;20091;-67
2023/09/14 06:41:40;;;;;;;6.32;2.05;;;11.80;99.90;;;;;;5034478;28;20049;-67
2023/09/14 06:44:05;;;;;;;5.80;2.67;;;11.90;99.90;;;;;;5028278;28;20406;-67
2023/09/14 06:46:31;;;;;;;7.18;2.30;;;12.00;99.90;;;;;;5016248;28;20087;-67
2023/09/14 06:48:57;;;;;;;8.45;2.90;;;12.10;99.90;;;;;;5015462;28;20049;-67
2023/09/14 06:51:23;;;;;;;7.30;2.50;;;12.10;99.90;;;;;;5030855;28;20048;-67
2023/09/14 06:53:50;;;;;;;7.40;2.20;;;12.20;99.90;;;;;;5015242;28;20502;-68
2023/09/14 06:56:15;;;;;;;8.50;2.50;;;12.30;99.90;;;;;;5031327;28;20036;-67
2023/09/14 06:58:41;;;;;;;6.55;2.13;;;12.40;99.90;;;;;;5031231;28;20059;-67
2023/09/14 07:01:07;;;;;;;6.97;1.88;;;12.50;99.90;;;;;;5042774;28;20114;-67
2023/09/14 07:03:34;;;;;;;7.47;2.10;;;12.60;99.90;;;;;;5031314;28;20036;-67
2023/09/14 07:06:01;;;;;;;5.47;1.98;;;12.70;99.90;;;;;;5032428;28;20087;-67
2023/09/14 07:08:27;;;;;;;5.88;1.90;;;12.70;99.90;;;;;;5036348;28;20053;-67
2023/09/14 07:10:54;;;;;;;5.97;1.60;;;12.80;99.90;;;;;;5043991;28;20048;-67
2023/09/14 07:13:20;;;;;;;6.65;1.92;;;12.80;99.90;;;;;;5031288;28;20045;-67
2023/09/14 07:15:46;;;;;;;4.97;1.42;;;12.90;99.90;;;;;;5019400;28;20044;-67
2023/09/14 07:18:26;;;;;;;8.90;1.80;;;13.00;99.90;;;;;;5044878;28;20039;-67
2023/09/14 07:20:52;;;;;;;5.43;1.95;;;13.10;99.90;;;;;;5029225;28;20045;-67
2023/09/14 07:23:18;;;;;;;8.77;1.80;;;13.10;99.90;;;;;;5034281;28;20393;-67
2023/09/14 07:25:44;;;;;;;5.75;2.17;;;13.20;99.90;;;;;;5030259;28;20385;-67
2023/09/14 07:28:11;;;;;;;7.35;2.20;;;13.30;99.90;;;;;;5047581;28;20041;-67
2023/09/14 07:30:37;;;;;;;4.57;1.63;;;13.40;99.90;;;;;;5041936;28;20045;-67
2023/09/14 07:33:03;;;;;;;5.00;1.52;;;13.50;99.90;;;;;;5031468;28;20124;-67
2023/09/14 07:35:29;;;;;;;5.80;1.70;;;13.60;99.90;;;;;;5035558;28;20051;-67
2023/09/14 07:37:54;;;;;;;6.25;2.45;;;13.70;99.90;;;;;;5035722;28;20033;-67
2023/09/14 07:40:20;;;;;;;5.43;1.92;;;13.70;99.90;;;;;;5033605;28;20406;-67
2023/09/14 07:42:46;;;;;;;4.75;1.30;;;13.80;99.90;;;;;;5034903;28;20040;-67
2023/09/14 07:45:11;;;;;;;4.07;1.38;;;13.80;99.90;;;;;;5036346;28;20033;-67
2023/09/14 07:47:37;;;;;;;8.68;1.80;;;13.90;99.90;;;;;;5042632;28;20048;-67
2023/09/14 07:50:03;;;;;;;5.80;1.73;;;14.00;99.90;;;;;;5054668;28;20049;-67
2023/09/14 07:52:28;;;;;;;6.15;1.48;;;14.10;99.90;;;;;;5054900;28;20044;-67
2023/09/14 07:54:54;;;;;;;5.32;1.48;;;14.20;99.90;;;;;;5048898;28;20036;-67
2023/09/14 07:57:20;;;;;;;5.40;1.50;;;14.20;99.90;;;;;;5039332;28;20127;-67
2023/09/14 07:59:46;;;;;;;4.55;1.38;;;14.20;99.90;;;;;;5037713;28;20045;-67
2023/09/14 08:02:11;;;;;;;6.28;1.48;;;14.20;99.90;;;;;;5036527;28;20037;-67
2023/09/14 08:04:37;;;;;;;6.63;1.60;;;14.10;99.90;;;;;;5036347;28;20037;-67
2023/09/14 08:07:03;;;;;;;5.22;1.58;;;14.10;99.90;;;;;;5020871;28;20049;-67
2023/09/14 08:09:28;;;;;;;8.05;1.55;;;14.10;99.90;;;;;;5035498;28;20049;-67
2023/09/14 08:11:54;;;;;;;5.93;1.77;;;14.10;99.90;;;;;;5037046;28;20083;-67
2023/09/14 08:14:20;;;;;;;6.30;1.98;;;14.10;99.90;;;;;;5054541;28;20121;-67
2023/09/14 08:16:45;;;;;;;8.13;1.75;;;14.10;99.90;;;;;;5054015;28;20044;-67
2023/09/14 08:19:11;;;;;;;6.57;2.10;;;14.20;99.90;;;;;;5036687;28;20037;-67
2023/09/14 08:21:37;;;;;;;4.97;1.60;;;14.20;99.90;;;;;;5036890;28;20045;-67
2023/09/14 08:24:02;;;;;;;5.13;1.40;;;14.30;99.90;;;;;;5036412;28;20482;-67
2023/09/14 08:26:29;;;;;;;3.78;1.30;;;14.40;99.90;;;;;;5035643;28;20167;-67
2023/09/14 08:28:54;;;;;;;6.82;2.08;;;14.50;99.90;;;;;;5036977;28;20574;-67
2023/09/14 08:31:21;;;;;;;5.85;1.48;;;14.60;99.90;;;;;;5036171;28;20127;-67
2023/09/14 08:33:47;;;;;;;6.35;1.88;;;14.70;99.90;;;;;;5019949;28;20051;-67
2023/09/14 08:36:13;;;;;;;6.75;1.63;;;14.80;99.90;;;;;;5036928;28;20405;-70
2023/09/14 08:38:38;;;;;;;4.47;1.77;;;14.90;99.90;;;;;;5035439;28;20128;-68
2023/09/14 08:41:14;;;;;;;7.40;2.17;;;15.10;99.90;;;;;;5054507;28;20124;-74
2023/09/14 08:43:40;;;;;;;9.45;1.70;;;15.20;99.90;;;;;;5036967;28;20400;-70
2023/09/14 08:46:08;;;;;;;6.80;2.03;;;15.30;99.90;;;;;;5019041;28;20047;-65
2023/09/14 08:48:37;;;;;;;7.15;2.03;;;15.50;99.90;;;;;;5036460;28;20107;-69
2023/09/14 08:51:05;;;;;;;14.32;2.45;;;15.60;99.90;;;;;;5034827;28;20094;-68
2023/09/14 08:53:32;;;;;;;4.38;1.70;;;15.70;99.90;;;;;;5036707;28;20041;-68
2023/09/14 08:55:58;;;;;;;5.05;1.98;;;15.80;99.90;;;;;;5020006;28;20381;-68
2023/09/14 08:58:25;;;;;;;4.90;1.92;;;15.90;99.90;;;;;;5035667;28;20041;-68
2023/09/14 09:00:53;;;;;;;7.60;1.65;;;16.00;99.90;;;;;;5032290;28;20045;-69
2023/09/14 09:03:19;;;;;;;6.30;1.90;;;16.10;99.90;;;;;;5008810;28;20050;-68
2023/09/14 09:05:45;;;;;;;10.10;1.63;;;16.30;99.90;;;;;;5012501;28;20108;-71
2023/09/14 09:08:13;;;;;;;6.78;1.85;;;16.30;99.90;;;;;;5016045;28;20091;-67
2023/09/14 09:10:40;;;;;;;7.32;1.80;;;16.40;99.90;;;;;;5031943;28;20038;-65
2023/09/14 09:13:06;;;;;;;6.15;2.03;;;16.40;99.90;;;;;;5031433;28;20083;-65
2023/09/14 09:15:34;;;;;;;7.32;1.95;;;16.40;99.90;;;;;;5025333;28;20048;-65
2023/09/14 09:18:11;;;;;;;6.50;1.98;;;16.40;99.90;;;;;;5028287;28;20052;-65
2023/09/14 09:20:41;;;;;;;7.00;1.80;;;16.40;99.90;;;;;;5029657;28;20042;-65
2023/09/14 09:23:07;;;;;;;6.28;1.70;;;16.50;99.90;;;;;;5026464;28;20116;-65
2023/09/14 09:25:51;;;;;;;6.13;1.73;;;16.50;99.90;;;;;;5030948;28;20043;-65
2023/09/14 09:28:17;;;;;;;6.22;1.73;;;16.50;99.90;;;;;;5031510;28;20059;-65
2023/09/14 09:30:44;;;;;;;6.30;1.88;;;16.50;99.90;;;;;;5031690;28;20049;-65
2023/09/14 09:33:10;;;;;;;7.90;1.90;;;16.50;99.90;;;;;;5031064;28;20048;-64
2023/09/14 09:35:36;;;;;;;6.07;2.20;;;16.50;99.90;;;;;;5015442;28;20048;-65
2023/09/14 09:38:22;;;;;;;5.35;2.00;;;16.40;99.90;;;;;;5032206;28;20033;-65
2023/09/14 09:40:47;;;;;;;9.90;1.80;;;16.40;99.90;;;;;;5014533;28;20056;-65
2023/09/14 09:43:18;;;;;;;8.07;1.92;;;16.40;99.90;;;;;;5032928;28;20033;-65
2023/09/14 09:45:46;;;;;;;8.20;1.77;;;16.50;99.90;;;;;;5022357;28;20038;-65
2023/09/14 09:48:12;;;;;;;7.05;2.00;;;16.50;99.90;;;;;;5022382;28;20037;-65
2023/09/14 09:50:38;;;;;;;5.38;1.88;;;16.60;99.90;;;;;;5030512;28;20560;-65
2023/09/14 09:53:10;;;;;;;6.88;2.10;;;16.80;99.90;;;;;;5021319;28;20061;-65
2023/09/14 09:55:36;;;;;;;4.53;1.30;;;17.00;99.90;;;;;;5026460;28;20186;-65
2023/09/14 09:58:02;;;;;;;5.47;1.50;;;17.10;99.90;;;;;;5031734;28;20053;-65
2023/09/14 10:00:42;;;;;;;7.47;2.00;;;17.20;99.90;;;;;;5030706;28;20453;-65
2023/09/14 10:03:07;;;;;;;7.95;1.80;;;17.20;99.90;;;;;;5030537;28;20049;-65
2023/09/14 10:05:38;;;;;;;9.13;2.00;;;17.20;99.90;;;;;;5026407;28;20081;-65
2023/09/14 10:08:10;;;;;;;9.77;1.75;;;17.20;99.90;;;;;;5019480;28;20045;-65
2023/09/14 10:10:37;;;;;;;5.35;1.88;;;17.20;99.90;;;;;;5030974;28;20084;-65
2023/09/14 10:13:05;;;;;;;4.68;1.58;;;17.10;99.90;;;;;;5032054;28;20053;-65
2023/09/14 10:15:32;;;;;;;5.22;1.48;;;17.10;99.90;;;;;;5031029;28;20053;-65
2023/09/14 10:17:58;;;;;;;8.27;1.88;;;17.10;99.90;;;;;;5032095;28;20041;-65
2023/09/14 10:20:28;;;;;;;8.40;2.30;;;17.00;99.90;;;;;;5031313;28;20100;-65
2023/09/14 10:22:54;;;;;;;9.95;2.67;;;17.00;99.90;;;;;;5032341;28;20053;-65
2023/09/14 10:25:21;;;;;;;6.82;2.20;;;17.00;99.90;;;;;;5031491;28;20378;-65
2023/09/14 10:27:46;;;;;;;6.28;2.00;;;17.00;99.90;;;;;;5031548;28;20111;-65
2023/09/14 10:30:20;;;;;;;11.40;3.28;;;17.10;99.90;;;;;;5031733;28;20041;-65
2023/09/14 10:32:52;;;;;;;7.72;2.67;;;17.20;99.90;;;;;;5031449;28;20041;-65
2023/09/14 10:35:18;;;;;;;6.47;1.95;;;17.30;99.90;;;;;;5014905;28;20045;-65
2023/09/14 10:37:45;;;;;;;8.52;2.20;;;17.30;99.90;;;;;;5030579;28;20053;-65
2023/09/14 10:40:12;;;;;;;7.22;2.00;;;17.30;99.90;;;;;;5032119;28;20037;-65
2023/09/14 10:42:40;;;;;;;4.85;1.80;;;17.30;99.90;;;;;;5030527;28;20112;-65
2023/09/14 10:45:07;;;;;;;6.25;2.05;;;17.30;99.90;;;;;;5030295;28;20124;-65
2023/09/14 10:47:37;;;;;;;6.55;2.53;;;17.30;99.90;;;;;;5030614;28;20044;-65
2023/09/14 10:50:08;;;;;;;9.40;3.20;;;17.40;99.90;;;;;;5031639;28;20454;-63
2023/09/14 10:52:34;;;;;;;8.18;2.67;;;17.50;99.90;;;;;;5029805;28;20241;-65
2023/09/14 10:55:00;;;;;;;12.30;2.60;;;17.60;99.90;;;;;;5030313;28;20116;-66
2023/09/14 10:57:29;;;;;;;7.20;2.78;;;17.70;99.90;;;;;;5030856;28;20053;-67
2023/09/14 10:59:58;;;;;;;9.10;2.42;;;17.70;99.90;;;;;;5032995;28;20049;-66
2023/09/14 11:02:39;;;;;;;8.45;2.70;;;17.90;99.90;;;;;;5034005;28;20501;-66
2023/09/14 11:05:16;;;;;;;11.40;2.75;;;18.00;99.90;;;;;;5017722;28;20051;-67
2023/09/14 11:07:44;;;;;;;8.95;3.63;;;18.00;99.90;;;;;;5034254;28;20390;-67
2023/09/14 11:10:15;;;;;;;8.80;3.22;;;17.90;99.90;;;;;;5034053;28;20052;-67
2023/09/14 11:12:41;;;;;;;7.30;2.40;;;17.90;99.90;;;;;;5033347;28;20063;-67
2023/09/14 11:15:21;;;;;;;9.40;3.58;;;17.90;99.90;;;;;;5033523;28;20041;-67
2023/09/14 11:17:57;;;;;;;8.60;3.63;;;18.00;99.90;;;;;;5052266;28;20124;-67
2023/09/14 11:20:22;;;;;;;12.73;3.45;;;18.10;99.90;;;;;;5033047;28;20045;-67
2023/09/14 11:22:49;;;;;;;9.82;3.55;;;18.20;99.90;;;;;;5033934;28;20045;-67
2023/09/14 11:25:25;;;;;;;12.02;3.80;;;18.20;99.90;;;;;;5034135;28;20425;-67
2023/09/14 11:27:51;;;;;;;12.75;3.45;;;18.30;99.90;;;;;;5051088;28;20036;-67
2023/09/14 11:30:21;;;;;;;8.55;3.08;;;18.20;99.90;;;;;;5034089;28;20045;-67
2023/09/14 11:32:48;;;;;;;8.05;3.38;;;18.30;99.90;;;;;;5033186;28;20083;-67
2023/09/14 11:35:14;;;;;;;9.05;2.60;;;18.10;99.90;;;;;;5033961;28;20049;-67
2023/09/14 11:37:40;;;;;;;7.97;2.72;;;18.10;99.90;;;;;;5051787;28;20048;-67
2023/09/14 11:40:16;;;;;;;7.53;2.90;;;18.20;99.90;;;;;;5032811;28;20099;-67
2023/09/14 11:43:07;;;;;;;7.65;2.60;;;18.30;99.90;;;;;;5033927;28;20517;-67
2023/09/14 11:45:40;;;;;;;9.52;3.10;;;18.40;99.90;;;;;;5033711;28;20048;-67
2023/09/14 11:48:06;;;;;;;7.88;3.10;;;18.50;99.90;;;;;;5033147;28;20095;-67
2023/09/14 11:50:33;;;;;;;11.38;2.85;;;18.60;99.90;;;;;;5033678;28;20494;-67
2023/09/14 11:52:59;;;;;;;8.48;2.95;;;18.60;99.90;;;;;;5034081;28;20129;-67
2023/09/14 11:55:31;;;;;;;9.30;3.05;;;18.70;99.90;;;;;;5032793;28;20048;-67
2023/09/14 11:57:57;;;;;;;9.32;2.42;;;18.70;99.90;;;;;;5034407;28;20053;-67
2023/09/14 12:00:24;;;;;;;6.88;2.33;;;18.80;99.90;;;;;;5036084;28;20432;-67
2023/09/14 12:02:50;;;;;;;6.72;2.83;;;18.80;99.90;;;;;;5033133;28;20037;-67
2023/09/14 12:05:16;;;;;;;8.85;2.30;;;19.00;99.90;;;;;;5050188;28;20165;-67
2023/09/14 12:07:43;;;;;;;13.13;2.67;;;19.10;99.90;;;;;;5049835;28;20041;-67
2023/09/14 12:10:21;;;;;;;6.93;2.80;;;19.10;99.90;;;;;;5049896;28;20521;-67
2023/09/14 12:12:47;;;;;;;12.18;3.15;;;19.10;99.90;;;;;;5050165;28;20843;-67
2023/09/14 12:15:18;;;;;;;7.95;2.83;;;19.00;99.90;;;;;;5049381;28;20075;-67
2023/09/14 12:17:52;;;;;;;10.32;3.15;;;18.90;99.90;;;;;;5050070;28;20553;-67
2023/09/14 12:20:19;;;;;;;7.95;2.83;;;18.90;99.90;;;;;;5049955;28;20124;-67
2023/09/14 12:22:46;;;;;;;8.73;2.58;;;18.80;99.90;;;;;;5049035;28;20041;-67
2023/09/14 12:25:17;;;;;;;7.60;3.00;;;18.80;99.90;;;;;;5050068;28;20041;-67
2023/09/14 12:27:43;;;;;;;10.65;3.05;;;19.00;99.90;;;;;;5052715;28;20411;-67
2023/09/14 12:30:10;;;;;;;6.57;2.63;;;19.00;99.90;;;;;;5053108;28;20461;-67
2023/09/14 12:32:40;;;;;;;8.35;3.20;;;19.00;99.90;;;;;;5036743;28;20048;-67
2023/09/14 12:35:12;;;;;;;10.35;2.97;;;19.10;99.90;;;;;;5053392;28;20044;-67
2023/09/14 12:37:39;;;;;;;9.50;2.63;;;19.10;99.90;;;;;;5052784;28;20041;-67
2023/09/14 12:40:10;;;;;;;8.95;2.65;;;19.10;99.90;;;;;;5054775;28;20048;-67
2023/09/14 12:42:37;;;;;;;7.20;2.78;;;19.10;99.90;;;;;;5054567;28;20043;-67
2023/09/14 12:45:11;;;;;;;6.90;2.58;;;19.10;99.90;;;;;;5052698;28;20083;-67
2023/09/14 12:47:37;;;;;;;6.35;2.30;;;19.10;99.90;;;;;;5053244;28;20049;-67
2023/09/14 12:50:04;;;;;;;7.03;2.40;;;19.00;99.90;;;;;;5052767;28;20111;-67
2023/09/14 12:52:31;;;;;;;7.22;2.60;;;19.10;99.90;;;;;;5052732;28;20120;-67
2023/09/14 12:55:11;;;;;;;8.10;2.42;;;19.10;99.90;;;;;;5054718;28;20037;-67
2023/09/14 12:57:37;;;;;;;4.78;2.00;;;19.10;99.90;;;;;;5052674;28;20036;-67
2023/09/14 13:00:11;;;;;;;8.38;2.53;;;19.10;99.90;;;;;;5054420;28;20102;-68
2023/09/14 13:02:42;;;;;;;9.25;2.70;;;19.20;99.90;;;;;;5053854;28;20041;-68
2023/09/14 13:05:08;;;;;;;8.43;2.45;;;19.30;99.90;;;;;;5035706;28;20127;-68
2023/09/14 13:07:38;;;;;;;6.65;2.58;;;19.30;99.90;;;;;;5036123;28;20040;-67
2023/09/14 13:10:12;;;;;;;8.73;2.95;;;19.40;99.90;;;;;;5036712;28;20384;-67
2023/09/14 13:13:12;;;;;;;8.00;3.17;;;19.30;99.90;;;;;;5035258;28;20090;-67
2023/09/14 13:15:40;;;;;;;5.88;2.05;;;19.30;99.90;;;;;;5035381;28;20283;-68
2023/09/14 13:18:10;;;;;;;6.55;2.70;;;19.30;99.90;;;;;;5035500;28;20087;-67
2023/09/14 13:20:37;;;;;;;9.27;2.33;;;19.20;99.90;;;;;;5035469;28;20501;-65